WZZ63LK LPPS-LPMA
Flight info
| Callsign | WZZ63LK |
|---|---|
| Flight time | 0h 12m |
| Altitude | 7000 |
| Route | PILIM |
| Aircraft | A321/M-SDE3FGHIRWY/LB1 |
Departure
| Time | 2026-04-26 13:23 |
|---|---|
| Airport | Porto Santo Airport (LPPS) |
Arrival
| Time | 2026-04-26 13:35 |
|---|---|
| Airport | Cristiano Ronaldo International Airport (LPMA) |
| Time | Latitude | Longitude | Altitude | Speed | Heading |
|---|---|---|---|---|---|
| 2026-04-26 13:08 | 33.07191 | -16.34639 | 295 ft | 0 kts | 135° |
| 2026-04-26 13:15 | 33.07191 | -16.34640 | 295 ft | 0 kts | 135° |
| 2026-04-26 13:15 | 33.07190 | -16.34638 | 295 ft | 1 kts | 137° |
| 2026-04-26 13:15 | 33.07139 | -16.34654 | 293 ft | 20 kts | 197° |
| 2026-04-26 13:16 | 33.06984 | -16.34731 | 288 ft | 18 kts | 219° |
| 2026-04-26 13:16 | 33.06962 | -16.34849 | 286 ft | 4 kts | 269° |
| 2026-04-26 13:16 | 33.06962 | -16.34855 | 286 ft | 0 kts | 269° |
| 2026-04-26 13:16 | 33.06962 | -16.34857 | 287 ft | 0 kts | 269° |
| 2026-04-26 13:19 | 33.06962 | -16.34863 | 287 ft | 3 kts | 270° |
| 2026-04-26 13:19 | 33.06958 | -16.34927 | 287 ft | 14 kts | 251° |
| 2026-04-26 13:19 | 33.06868 | -16.34976 | 284 ft | 18 kts | 177° |
| 2026-04-26 13:19 | 33.06718 | -16.34969 | 276 ft | 24 kts | 178° |
| 2026-04-26 13:20 | 33.06543 | -16.34960 | 269 ft | 19 kts | 177° |
| 2026-04-26 13:20 | 33.06432 | -16.34954 | 265 ft | 18 kts | 177° |
| 2026-04-26 13:20 | 33.06296 | -16.34946 | 259 ft | 21 kts | 181° |
| 2026-04-26 13:20 | 33.06144 | -16.34926 | 255 ft | 23 kts | 148° |
| 2026-04-26 13:21 | 33.06011 | -16.34853 | 251 ft | 19 kts | 211° |
| 2026-04-26 13:21 | 33.06009 | -16.34922 | 251 ft | 12 kts | 304° |
| 2026-04-26 13:21 | 33.06070 | -16.34944 | 253 ft | 0 kts | 356° |
| 2026-04-26 13:22 | 33.06093 | -16.34946 | 253 ft | 22 kts | 356° |
| 2026-04-26 13:22 | 33.06493 | -16.34958 | 268 ft | 90 kts | 359° |
| 2026-04-26 13:22 | 33.07313 | -16.34994 | 306 ft | 143 kts | 358° |
| 2026-04-26 13:22 | 33.08334 | -16.35029 | 915 ft | 140 kts | 360° |
| 2026-04-26 13:23 | 33.09288 | -16.35054 | 1694 ft | 139 kts | 2° |
| 2026-04-26 13:23 | 33.10281 | -16.35119 | 2229 ft | 149 kts | 359° |
| 2026-04-26 13:23 | 33.11343 | -16.35175 | 2715 ft | 156 kts | 1° |
| 2026-04-26 13:23 | 33.12411 | -16.35613 | 2984 ft | 181 kts | 319° |
| 2026-04-26 13:24 | 33.12971 | -16.37076 | 3193 ft | 212 kts | 282° |
| 2026-04-26 13:24 | 33.12734 | -16.38909 | 3334 ft | 241 kts | 244° |
| 2026-04-26 13:24 | 33.11531 | -16.40409 | 3578 ft | 262 kts | 216° |
| 2026-04-26 13:24 | 33.09952 | -16.41653 | 3980 ft | 277 kts | 210° |
| 2026-04-26 13:25 | 33.08291 | -16.42817 | 4695 ft | 281 kts | 208° |
| 2026-04-26 13:25 | 33.06586 | -16.43979 | 5457 ft | 283 kts | 207° |
| 2026-04-26 13:25 | 33.04872 | -16.45156 | 6192 ft | 286 kts | 208° |
| 2026-04-26 13:25 | 33.03143 | -16.46361 | 6863 ft | 290 kts | 208° |
| 2026-04-26 13:26 | 33.01394 | -16.47598 | 7091 ft | 292 kts | 208° |
| 2026-04-26 13:26 | 32.99651 | -16.48846 | 7154 ft | 292 kts | 209° |
| 2026-04-26 13:26 | 32.97916 | -16.50097 | 7164 ft | 292 kts | 209° |
| 2026-04-26 13:26 | 32.96179 | -16.51354 | 7165 ft | 292 kts | 209° |
| 2026-04-26 13:27 | 32.94443 | -16.52612 | 7164 ft | 292 kts | 209° |
| 2026-04-26 13:27 | 32.92709 | -16.53867 | 7162 ft | 292 kts | 209° |
| 2026-04-26 13:27 | 32.90974 | -16.55120 | 7160 ft | 291 kts | 209° |
| 2026-04-26 13:27 | 32.89239 | -16.56367 | 7159 ft | 291 kts | 209° |
| 2026-04-26 13:28 | 32.87508 | -16.57611 | 7120 ft | 289 kts | 209° |
| 2026-04-26 13:28 | 32.85811 | -16.58840 | 6887 ft | 284 kts | 211° |
| 2026-04-26 13:28 | 32.84301 | -16.60312 | 6655 ft | 276 kts | 221° |
| 2026-04-26 13:28 | 32.82892 | -16.61834 | 6328 ft | 272 kts | 219° |
| 2026-04-26 13:29 | 32.81356 | -16.63125 | 5974 ft | 269 kts | 205° |
| 2026-04-26 13:29 | 32.80232 | -16.63723 | 5745 ft | 267 kts | 196° |
| 2026-04-26 13:29 | 32.77890 | -16.64647 | 5263 ft | 264 kts | 196° |
| 2026-04-26 13:29 | 32.76175 | -16.65333 | 4702 ft | 261 kts | 197° |
| 2026-04-26 13:30 | 32.74511 | -16.66012 | 4550 ft | 247 kts | 197° |
| 2026-04-26 13:30 | 32.72899 | -16.66671 | 4243 ft | 243 kts | 197° |
| 2026-04-26 13:30 | 32.71308 | -16.67316 | 3953 ft | 238 kts | 198° |
| 2026-04-26 13:30 | 32.69751 | -16.67947 | 3754 ft | 236 kts | 198° |
| 2026-04-26 13:31 | 32.68192 | -16.68576 | 3679 ft | 237 kts | 198° |
| 2026-04-26 13:31 | 32.66633 | -16.69207 | 3584 ft | 236 kts | 198° |
| 2026-04-26 13:31 | 32.65074 | -16.69841 | 3481 ft | 236 kts | 198° |
| 2026-04-26 13:31 | 32.63552 | -16.70516 | 3298 ft | 231 kts | 207° |
| 2026-04-26 13:32 | 32.62248 | -16.71628 | 2705 ft | 229 kts | 228° |
| 2026-04-26 13:32 | 32.61364 | -16.73117 | 2301 ft | 211 kts | 248° |
| 2026-04-26 13:32 | 32.60923 | -16.74706 | 2156 ft | 197 kts | 264° |
| 2026-04-26 13:32 | 32.60856 | -16.76293 | 2057 ft | 191 kts | 278° |
| 2026-04-26 13:33 | 32.61133 | -16.77805 | 1974 ft | 186 kts | 294° |
| 2026-04-26 13:33 | 32.61792 | -16.79084 | 1711 ft | 179 kts | 317° |
| 2026-04-26 13:33 | 32.62795 | -16.79924 | 1481 ft | 174 kts | 339° |
| 2026-04-26 13:33 | 32.63902 | -16.80290 | 1276 ft | 161 kts | 351° |
| 2026-04-26 13:34 | 32.64988 | -16.80455 | 1043 ft | 153 kts | 358° |
| 2026-04-26 13:34 | 32.66039 | -16.80464 | 945 ft | 149 kts | 5° |
| 2026-04-26 13:34 | 32.67082 | -16.80259 | 827 ft | 151 kts | 16° |
| 2026-04-26 13:34 | 32.67693 | -16.79876 | 637 ft | 152 kts | 37° |
| 2026-04-26 13:35 | 32.68705 | -16.78700 | 293 ft | 149 kts | 40° |
| 2026-04-26 13:35 | 32.69416 | -16.77883 | 177 ft | 128 kts | 42° |
| 2026-04-26 13:35 | 32.69852 | -16.77372 | 202 ft | 44 kts | 45° |
| 2026-04-26 13:35 | 32.69961 | -16.77204 | 207 ft | 20 kts | 98° |
| 2026-04-26 13:36 | 32.69870 | -16.77168 | 194 ft | 20 kts | 188° |
| 2026-04-26 13:36 | 32.69761 | -16.77275 | 182 ft | 21 kts | 226° |
| 2026-04-26 13:36 | 32.69662 | -16.77395 | 180 ft | 20 kts | 225° |
| 2026-04-26 13:36 | 32.69578 | -16.77498 | 178 ft | 5 kts | 226° |
| 2026-04-26 13:37 | 32.69559 | -16.77521 | 177 ft | 5 kts | 226° |
| 2026-04-26 13:37 | 32.69526 | -16.77564 | 177 ft | 10 kts | 227° |
| 2026-04-26 13:37 | 32.69485 | -16.77595 | 175 ft | 0 kts | 131° |
| 2026-04-26 13:37 | 32.69459 | -16.77568 | 175 ft | 8 kts | 136° |
| 2026-04-26 13:38 | 32.69443 | -16.77550 | 174 ft | 0 kts | 137° |